Aviation Digital Data Service (ADDS)

Output produced by METARs form (0239 UTC 18 June 2019)
found at http://www.aviationweather.gov/metar/data/
 
Forecast for: ESMS (MALMO/STURUP , SE)
Text: TAF ESMS 172313Z 1800/1824 14008KT 9999 FEW040
Forecast period: 0000 UTC 18 June 2019 to 0000 UTC 19 June 2019
Forecast type: FROM: standard forecast or significant change
Winds: from the SE (140 degrees) at 9 MPH (8 knots; 4.1 m/s)
Visibility: 6 or more miles 10+ km)
Ceiling: at least 12,000 feet AGL
Clouds: few clouds at 4000 feet AGL
Weather: no significant weather forecast for this period